Time;durP1;ratioP1;P1;durP2;ratioP2;P2;SDS_P1;SDS_P2;PMS_P1;PMS_P2;Temp;Humidity;BMP_temperature;BMP_pressure;BME280_temperature;BME280_humidity;BME280_pressure;Samples;Min_cycle;Max_cycle;Signal;HPM_P1;HPM_P2
2023/05/21 00:01:19;;;;;;;17.13;13.10;;;22.40;54.00;;;;;;5010147;28;20469;-82
2023/05/21 00:03:46;;;;;;;23.30;14.90;;;22.40;54.10;;;;;;5005257;28;20960;-82
2023/05/21 00:06:14;;;;;;;19.87;14.10;;;22.40;54.10;;;;;;5027642;28;20445;-80
2023/05/21 00:08:41;;;;;;;18.00;13.43;;;22.40;54.10;;;;;;5022340;28;21884;-81
2023/05/21 00:11:09;;;;;;;22.60;14.07;;;22.40;54.10;;;;;;5032940;28;20453;-82
2023/05/21 00:13:37;;;;;;;22.60;13.57;;;22.40;53.80;;;;;;5012191;28;20474;-82
2023/05/21 00:16:04;;;;;;;20.60;13.77;;;22.40;54.20;;;;;;5033807;28;20526;-81
2023/05/21 00:18:33;;;;;;;21.57;13.40;;;22.30;54.40;;;;;;4997027;28;20453;-81
2023/05/21 00:21:00;;;;;;;19.83;13.40;;;22.30;54.60;;;;;;5033261;28;20446;-82
2023/05/21 00:23:27;;;;;;;21.10;14.43;;;22.30;54.60;;;;;;5021747;28;20466;-81
2023/05/21 00:25:55;;;;;;;19.50;13.70;;;22.30;54.80;;;;;;5031613;28;20459;-81
2023/05/21 00:28:23;;;;;;;19.20;14.30;;;22.20;54.70;;;;;;5026138;28;21103;-80
2023/05/21 00:30:50;;;;;;;20.00;13.40;;;22.20;54.80;;;;;;4999483;28;20449;-82
2023/05/21 00:33:17;;;;;;;20.27;14.80;;;22.20;54.60;;;;;;5036986;28;20480;-80
2023/05/21 00:35:45;;;;;;;20.90;14.40;;;22.20;54.60;;;;;;5045948;28;20472;-82
2023/05/21 00:38:13;;;;;;;21.53;14.20;;;22.20;54.20;;;;;;5031166;28;20456;-82
2023/05/21 00:40:40;;;;;;;18.10;14.23;;;22.10;54.30;;;;;;5012248;28;20444;-80
2023/05/21 00:43:08;;;;;;;19.70;14.73;;;22.10;54.20;;;;;;5001266;28;20558;-82
2023/05/21 00:45:37;;;;;;;23.57;14.53;;;22.10;54.30;;;;;;5032364;28;20437;-82
2023/05/21 00:48:05;;;;;;;17.17;13.03;;;22.10;54.40;;;;;;5036070;28;20483;-81
2023/05/21 00:50:32;;;;;;;21.50;13.83;;;22.10;54.70;;;;;;5005481;28;21042;-81
2023/05/21 00:53:00;;;;;;;21.63;13.90;;;22.10;53.90;;;;;;5030926;28;20473;-82
2023/05/21 00:55:27;;;;;;;17.60;13.40;;;22.10;54.90;;;;;;5006893;28;20453;-80
2023/05/21 00:57:54;;;;;;;18.07;13.43;;;22.10;54.70;;;;;;5022531;28;20456;-81
2023/05/21 01:00:23;;;;;;;18.60;13.20;;;22.10;54.70;;;;;;5023130;28;20454;-82
2023/05/21 01:02:51;;;;;;;19.97;14.67;;;22.10;55.00;;;;;;5017546;28;20551;-79
2023/05/21 01:05:18;;;;;;;19.07;13.00;;;22.10;54.80;;;;;;5019637;28;20453;-80
2023/05/21 01:07:47;;;;;;;17.80;12.57;;;22.00;55.20;;;;;;4994388;28;20586;-82
2023/05/21 01:10:14;;;;;;;23.57;14.30;;;22.00;55.20;;;;;;5001436;28;20445;-81
2023/05/21 01:12:43;;;;;;;20.77;12.50;;;22.00;55.60;;;;;;5029171;28;20560;-82
2023/05/21 01:15:11;;;;;;;20.10;13.20;;;22.00;55.10;;;;;;5051040;28;20488;-81
2023/05/21 01:17:40;;;;;;;21.23;14.07;;;22.00;55.20;;;;;;5039447;28;20524;-80
2023/05/21 01:20:10;;;;;;;17.60;13.53;;;22.00;54.70;;;;;;5003001;28;21142;-83
2023/05/21 01:22:42;;;;;;;19.60;13.67;;;22.00;55.20;;;;;;5039070;28;20477;-83
2023/05/21 01:25:11;;;;;;;22.17;14.20;;;21.90;55.30;;;;;;5008313;28;20445;-80
2023/05/21 01:27:38;;;;;;;18.90;14.60;;;22.00;55.60;;;;;;5007129;28;20442;-83
2023/05/21 01:30:07;;;;;;;17.30;12.73;;;22.00;55.20;;;;;;5026374;28;20456;-81
2023/05/21 01:32:41;;;;;;;18.47;12.93;;;22.00;55.30;;;;;;5007507;28;20508;-82
2023/05/21 01:35:12;;;;;;;17.97;13.97;;;22.00;55.30;;;;;;5034400;28;20503;-79
2023/05/21 01:37:45;;;;;;;17.30;13.47;;;21.90;55.20;;;;;;5032019;28;20461;-81
2023/05/21 01:40:23;;;;;;;18.20;13.20;;;21.90;55.20;;;;;;5019930;28;20459;-81
2023/05/21 01:42:51;;;;;;;18.77;12.97;;;21.90;55.20;;;;;;5031194;28;21016;-83
2023/05/21 01:45:19;;;;;;;18.10;12.90;;;21.90;55.20;;;;;;5026238;28;21183;-81
2023/05/21 01:47:49;;;;;;;18.47;12.73;;;21.80;55.30;;;;;;5017942;28;20452;-82
2023/05/21 01:50:18;;;;;;;17.67;12.80;;;21.80;55.50;;;;;;5018506;28;20458;-82
2023/05/21 01:52:49;;;;;;;22.80;13.67;;;21.80;56.00;;;;;;5047697;28;20473;-82
2023/05/21 01:55:23;;;;;;;19.50;14.70;;;21.80;55.30;;;;;;5033194;28;20533;-82
2023/05/21 01:57:52;;;;;;;20.77;14.67;;;21.80;55.40;;;;;;5007107;28;20446;-83
2023/05/21 02:00:20;;;;;;;16.57;13.40;;;21.70;55.40;;;;;;5019037;28;20456;-82
2023/05/21 02:02:47;;;;;;;24.50;14.97;;;21.80;55.70;;;;;;5030061;28;20476;-82
2023/05/21 02:05:15;;;;;;;20.73;13.57;;;21.70;55.40;;;;;;5035371;28;20983;-82
2023/05/21 02:07:44;;;;;;;20.27;14.30;;;21.70;55.50;;;;;;5046378;28;20449;-84
2023/05/21 02:10:11;;;;;;;21.80;14.73;;;21.70;55.60;;;;;;5035566;28;20446;-80
2023/05/21 02:12:40;;;;;;;18.60;11.73;;;21.60;55.70;;;;;;5023989;28;20927;-81
2023/05/21 02:15:07;;;;;;;21.50;14.77;;;21.60;55.80;;;;;;5052094;28;21056;-83
2023/05/21 02:17:35;;;;;;;22.57;15.00;;;21.60;55.80;;;;;;5020097;28;20461;-80
2023/05/21 02:20:10;;;;;;;20.40;13.57;;;21.60;55.90;;;;;;5001363;28;20453;-81
2023/05/21 02:22:38;;;;;;;20.00;13.40;;;21.60;55.90;;;;;;5048470;28;20468;-82
2023/05/21 02:25:07;;;;;;;19.77;13.70;;;21.60;55.70;;;;;;5001137;28;20473;-82
2023/05/21 02:27:35;;;;;;;16.13;12.30;;;21.60;55.80;;;;;;5022761;28;20437;-81
2023/05/21 02:30:05;;;;;;;19.00;12.63;;;21.60;55.80;;;;;;5023609;28;20484;-81
2023/05/21 02:32:32;;;;;;;24.57;13.67;;;21.60;55.60;;;;;;5034899;28;20577;-81
2023/05/21 02:35:00;;;;;;;19.90;13.30;;;21.60;55.50;;;;;;5007009;28;20469;-80
2023/05/21 02:37:28;;;;;;;21.10;13.33;;;21.50;55.70;;;;;;5015432;28;20568;-82
2023/05/21 02:39:55;;;;;;;16.37;12.80;;;21.30;57.00;;;;;;5021086;28;20464;-81
2023/05/21 02:42:22;;;;;;;23.47;13.03;;;21.30;57.10;;;;;;5008671;28;20466;-83
2023/05/21 02:44:50;;;;;;;20.43;14.10;;;21.20;57.10;;;;;;5031174;28;20600;-80
2023/05/21 02:47:19;;;;;;;17.30;13.07;;;21.30;57.00;;;;;;5033979;28;20449;-80
2023/05/21 02:49:46;;;;;;;20.90;13.27;;;21.40;56.60;;;;;;5030337;28;20453;-82
2023/05/21 02:52:13;;;;;;;18.47;13.80;;;21.30;56.70;;;;;;5005868;28;20477;-79
2023/05/21 02:54:41;;;;;;;16.93;12.60;;;21.40;56.70;;;;;;5039859;28;20469;-81
2023/05/21 02:57:08;;;;;;;19.97;12.83;;;21.30;56.00;;;;;;5007128;28;20544;-81
2023/05/21 02:59:35;;;;;;;23.33;13.87;;;21.30;56.30;;;;;;5021236;28;20457;-82
2023/05/21 03:02:02;;;;;;;17.87;13.30;;;21.30;56.10;;;;;;5050453;28;20461;-81
2023/05/21 03:04:31;;;;;;;19.17;14.00;;;21.30;56.20;;;;;;5006381;28;20449;-82
2023/05/21 03:07:00;;;;;;;18.20;12.77;;;21.30;56.20;;;;;;5004374;28;20446;-82
2023/05/21 03:09:28;;;;;;;21.53;13.93;;;21.20;56.50;;;;;;5017688;28;20888;-82
2023/05/21 03:11:57;;;;;;;18.20;13.07;;;21.20;56.30;;;;;;4998390;28;20456;-80
2023/05/21 03:14:24;;;;;;;19.20;12.47;;;21.20;56.50;;;;;;5018298;28;20472;-80
2023/05/21 03:16:51;;;;;;;21.23;12.00;;;21.20;56.20;;;;;;5042666;28;20461;-79
2023/05/21 03:19:19;;;;;;;19.13;12.97;;;21.20;56.40;;;;;;5034654;28;20446;-82
2023/05/21 03:21:49;;;;;;;19.70;13.23;;;21.10;56.20;;;;;;5030175;28;20485;-80
2023/05/21 03:24:16;;;;;;;17.57;12.97;;;21.10;56.30;;;;;;5009276;28;20452;-83
2023/05/21 03:26:43;;;;;;;18.43;13.43;;;21.20;56.30;;;;;;5014085;28;20485;-81
2023/05/21 03:29:11;;;;;;;18.40;13.23;;;21.20;56.20;;;;;;5033793;28;20464;-82
2023/05/21 03:31:39;;;;;;;19.70;14.10;;;21.20;56.30;;;;;;5004424;28;20499;-81
2023/05/21 03:34:09;;;;;;;16.63;12.03;;;21.10;56.00;;;;;;5013168;28;20469;-81
2023/05/21 03:36:36;;;;;;;17.40;12.87;;;21.00;56.30;;;;;;5043624;28;20449;-83
2023/05/21 03:39:05;;;;;;;23.60;14.03;;;21.10;56.50;;;;;;5032183;28;20462;-80
2023/05/21 03:41:34;;;;;;;19.40;12.37;;;21.10;56.70;;;;;;5019493;28;20507;-81
2023/05/21 03:44:07;;;;;;;17.73;12.63;;;21.00;56.50;;;;;;5031145;28;20455;-80
2023/05/21 03:46:46;;;;;;;17.10;12.40;;;21.10;56.70;;;;;;5009682;28;20452;-82
2023/05/21 03:49:23;;;;;;;20.20;12.57;;;21.10;56.70;;;;;;5027320;28;20543;-83
2023/05/21 03:51:52;;;;;;;20.00;13.40;;;21.10;56.50;;;;;;5028614;28;20507;-80
2023/05/21 03:54:21;;;;;;;17.57;12.23;;;21.10;56.70;;;;;;5021058;28;20465;-80
2023/05/21 03:56:51;;;;;;;17.27;12.60;;;21.10;56.80;;;;;;5008646;28;20460;-82
2023/05/21 03:59:18;;;;;;;19.13;13.10;;;21.10;56.60;;;;;;5028274;28;20460;-82
2023/05/21 04:01:46;;;;;;;20.53;12.27;;;21.10;56.90;;;;;;5037148;28;21218;-80
2023/05/21 04:04:16;;;;;;;15.40;12.70;;;21.10;57.00;;;;;;5037321;28;20861;-81
2023/05/21 04:06:43;;;;;;;18.73;13.73;;;21.10;57.00;;;;;;5009676;28;21048;-79
2023/05/21 04:09:11;;;;;;;15.57;12.57;;;21.10;57.00;;;;;;5037097;28;20567;-81
2023/05/21 04:11:39;;;;;;;18.30;13.13;;;21.20;57.10;;;;;;5009276;28;20566;-82
2023/05/21 04:14:06;;;;;;;18.43;13.60;;;21.10;57.00;;;;;;5028761;28;20475;-82
2023/05/21 04:16:34;;;;;;;19.07;13.53;;;21.20;56.90;;;;;;5004989;28;20481;-82
2023/05/21 04:19:01;;;;;;;16.60;12.40;;;21.20;56.90;;;;;;5036705;28;20457;-81
2023/05/21 04:21:30;;;;;;;19.00;13.53;;;21.20;57.10;;;;;;5023981;28;20582;-82
2023/05/21 04:23:59;;;;;;;17.23;12.43;;;21.20;57.10;;;;;;5005877;28;20542;-82
2023/05/21 04:26:49;;;;;;;21.33;13.33;;;21.20;57.10;;;;;;5016091;28;20461;-83
2023/05/21 04:29:19;;;;;;;16.13;12.90;;;21.20;57.10;;;;;;5013332;28;20987;-80
2023/05/21 04:31:48;;;;;;;17.70;12.47;;;21.10;57.50;;;;;;5035504;28;21116;-82
2023/05/21 04:34:16;;;;;;;17.37;12.73;;;21.10;57.40;;;;;;5023472;28;20465;-79
2023/05/21 04:36:44;;;;;;;17.60;13.70;;;21.20;57.20;;;;;;5024809;28;20457;-80
2023/05/21 04:39:11;;;;;;;16.53;12.40;;;21.20;57.20;;;;;;5056046;28;21045;-82
2023/05/21 04:41:39;;;;;;;17.60;12.80;;;21.30;57.20;;;;;;5009821;28;20938;-81
2023/05/21 04:44:08;;;;;;;17.87;12.90;;;21.30;57.10;;;;;;5021401;28;20445;-81
2023/05/21 04:46:36;;;;;;;19.30;13.60;;;21.40;57.30;;;;;;5053289;28;20495;-80
2023/05/21 04:49:04;;;;;;;16.90;12.77;;;21.40;57.40;;;;;;5026954;28;20821;-82
2023/05/21 04:51:32;;;;;;;22.00;14.60;;;21.40;57.00;;;;;;5042687;28;20593;-80
2023/05/21 04:53:59;;;;;;;18.73;13.53;;;21.00;57.60;;;;;;5027726;28;20461;-82
2023/05/21 04:56:26;;;;;;;18.57;13.83;;;21.10;57.60;;;;;;5034179;28;20447;-80
2023/05/21 04:58:53;;;;;;;17.63;13.63;;;21.30;57.90;;;;;;5039473;28;20450;-82
2023/05/21 05:01:22;;;;;;;18.10;12.63;;;21.40;57.60;;;;;;5039428;28;20547;-80
2023/05/21 05:03:49;;;;;;;19.73;13.33;;;21.50;57.60;;;;;;5009463;28;20458;-82
2023/05/21 05:06:16;;;;;;;16.97;11.50;;;21.60;57.70;;;;;;5004229;28;20460;-81
2023/05/21 05:08:44;;;;;;;21.80;13.27;;;21.60;57.50;;;;;;4997289;28;20480;-80
2023/05/21 05:11:12;;;;;;;18.97;13.13;;;21.70;57.50;;;;;;5020690;28;21306;-81
2023/05/21 05:13:40;;;;;;;20.70;13.47;;;21.70;57.30;;;;;;5023851;28;20543;-80
2023/05/21 05:16:07;;;;;;;16.33;12.67;;;21.70;56.70;;;;;;5021789;28;20487;-81
2023/05/21 05:18:35;;;;;;;22.13;13.33;;;21.80;57.10;;;;;;5021643;28;20818;-80
2023/05/21 05:21:03;;;;;;;15.53;12.23;;;21.90;57.40;;;;;;5026599;28;20467;-82
2023/05/21 05:23:30;;;;;;;19.63;12.87;;;21.90;57.60;;;;;;5026466;28;20540;-81
2023/05/21 05:25:57;;;;;;;21.40;13.37;;;22.00;57.50;;;;;;5007854;28;20832;-81
2023/05/21 05:28:25;;;;;;;18.10;13.40;;;22.00;57.50;;;;;;5052553;28;20517;-82
2023/05/21 05:30:52;;;;;;;16.23;12.63;;;22.10;57.20;;;;;;5033453;28;20449;-81
2023/05/21 05:33:24;;;;;;;24.50;13.73;;;22.10;57.30;;;;;;5035050;28;20519;-81
2023/05/21 05:35:52;;;;;;;18.10;12.50;;;22.10;57.30;;;;;;5000467;28;20528;-81
2023/05/21 05:38:20;;;;;;;17.03;12.17;;;22.10;56.90;;;;;;5030998;28;20437;-80
2023/05/21 05:40:48;;;;;;;20.67;12.43;;;22.10;56.80;;;;;;5018586;28;20452;-81
2023/05/21 05:43:15;;;;;;;16.70;12.73;;;22.20;57.20;;;;;;5023844;28;20496;-82
2023/05/21 05:45:43;;;;;;;15.83;12.20;;;22.20;57.20;;;;;;5005948;28;20453;-82
2023/05/21 05:48:15;;;;;;;15.90;12.23;;;22.20;57.40;;;;;;5019905;28;20453;-81
2023/05/21 05:50:42;;;;;;;18.17;13.00;;;22.30;56.30;;;;;;5036803;28;20457;-80
2023/05/21 05:53:12;;;;;;;16.37;12.57;;;22.30;55.90;;;;;;5042137;28;20974;-80
2023/05/21 05:55:39;;;;;;;15.90;11.80;;;22.40;57.00;;;;;;5042659;28;20977;-81
2023/05/21 05:58:06;;;;;;;17.87;12.70;;;22.40;57.10;;;;;;5009542;28;20961;-81
2023/05/21 06:00:40;;;;;;;16.60;11.87;;;22.50;57.20;;;;;;5015032;28;20850;-82
2023/05/21 06:03:07;;;;;;;15.67;12.40;;;22.60;57.50;;;;;;5027630;28;20986;-81
2023/05/21 06:05:34;;;;;;;18.87;12.50;;;22.70;57.20;;;;;;5026510;28;20533;-82
2023/05/21 06:08:01;;;;;;;14.50;12.10;;;22.80;57.00;;;;;;5008581;28;20472;-79
2023/05/21 06:10:30;;;;;;;16.70;11.80;;;22.80;56.50;;;;;;5027800;28;20580;-80
2023/05/21 06:12:57;;;;;;;15.13;12.47;;;22.80;55.60;;;;;;5014006;28;20461;-80
2023/05/21 06:15:24;;;;;;;14.40;10.70;;;22.80;55.70;;;;;;5015727;28;20473;-82
2023/05/21 06:17:51;;;;;;;15.47;11.70;;;22.80;56.10;;;;;;5034878;28;20456;-82
2023/05/21 06:20:18;;;;;;;23.80;11.40;;;22.90;56.50;;;;;;5017651;28;20464;-81
2023/05/21 06:22:45;;;;;;;16.63;11.97;;;23.00;56.30;;;;;;5029590;28;20714;-80
2023/05/21 06:25:12;;;;;;;16.93;11.27;;;23.00;56.30;;;;;;5023824;28;20463;-81
2023/05/21 06:27:40;;;;;;;15.73;11.70;;;23.00;55.70;;;;;;5005983;28;20436;-81
2023/05/21 06:30:14;;;;;;;14.07;11.50;;;23.10;55.60;;;;;;5035207;28;20463;-81
2023/05/21 06:32:42;;;;;;;18.60;11.30;;;23.10;55.50;;;;;;5031414;28;20484;-81
2023/05/21 06:35:10;;;;;;;14.73;11.87;;;23.10;55.00;;;;;;5022553;28;20871;-80
2023/05/21 06:37:36;;;;;;;18.33;11.73;;;23.20;55.10;;;;;;5019298;28;20461;-81
2023/05/21 06:40:04;;;;;;;14.30;12.00;;;23.30;55.90;;;;;;5013344;28;20527;-80
2023/05/21 06:42:32;;;;;;;15.00;11.90;;;23.40;56.40;;;;;;5023116;28;20461;-80
2023/05/21 06:45:19;;;;;;;14.03;10.77;;;23.40;55.50;;;;;;5050894;28;20438;-80
2023/05/21 06:47:46;;;;;;;14.43;11.00;;;23.40;55.80;;;;;;5028094;28;20449;-81
2023/05/21 06:50:13;;;;;;;16.87;12.37;;;23.50;55.90;;;;;;5006072;28;21423;-81
2023/05/21 06:52:40;;;;;;;13.00;10.80;;;23.60;55.60;;;;;;4998607;28;20544;-80
2023/05/21 06:55:08;;;;;;;15.20;11.50;;;23.60;55.50;;;;;;5046276;28;20592;-80
2023/05/21 06:58:07;;;;;;;18.37;10.80;;;23.60;55.60;;;;;;5033482;28;20977;-81
2023/05/21 07:00:36;;;;;;;16.30;11.40;;;23.80;56.00;;;;;;5036992;28;20461;-80
2023/05/21 07:03:04;;;;;;;15.60;11.10;;;23.80;55.40;;;;;;5033994;28;20966;-81
2023/05/21 07:05:31;;;;;;;13.70;11.00;;;23.80;55.40;;;;;;5022823;28;20507;-81
2023/05/21 07:07:58;;;;;;;11.97;10.43;;;23.90;55.70;;;;;;5015769;28;21067;-82
2023/05/21 07:10:25;;;;;;;17.73;11.50;;;24.00;55.20;;;;;;5021321;28;20462;-82
2023/05/21 07:12:52;;;;;;;13.20;11.03;;;24.00;55.40;;;;;;5004722;28;20488;-81
2023/05/21 07:15:20;;;;;;;15.77;11.87;;;24.00;54.60;;;;;;5003704;28;20507;-80
2023/05/21 07:17:49;;;;;;;19.73;11.20;;;24.00;55.30;;;;;;5014812;28;20460;-81
2023/05/21 07:20:16;;;;;;;18.73;11.63;;;24.10;55.70;;;;;;5015289;28;20447;-81
2023/05/21 07:22:49;;;;;;;17.77;11.80;;;24.10;55.00;;;;;;5030786;28;20464;-80
2023/05/21 07:25:17;;;;;;;17.47;11.97;;;24.20;55.00;;;;;;5039209;28;20452;-80
2023/05/21 07:27:44;;;;;;;14.63;11.70;;;24.30;54.90;;;;;;4999555;28;20506;-81
2023/05/21 07:30:12;;;;;;;15.83;11.90;;;23.80;53.90;;;;;;5013958;28;20535;-82
2023/05/21 07:32:39;;;;;;;13.90;11.03;;;23.60;55.30;;;;;;5032429;28;20501;-81
2023/05/21 07:35:08;;;;;;;13.60;11.57;;;23.60;55.00;;;;;;5013601;28;20469;-82
2023/05/21 07:37:35;;;;;;;17.10;11.00;;;23.80;54.70;;;;;;5033222;28;20450;-82
2023/05/21 07:40:02;;;;;;;15.27;12.37;;;23.90;54.10;;;;;;5013776;28;20478;-81
2023/05/21 07:42:31;;;;;;;13.40;10.07;;;23.90;54.00;;;;;;5022923;28;20487;-82
2023/05/21 07:44:58;;;;;;;15.37;10.73;;;24.00;54.00;;;;;;5015984;28;20457;-79
2023/05/21 07:47:27;;;;;;;13.00;10.73;;;24.10;53.90;;;;;;5006109;28;20438;-81
2023/05/21 07:49:54;;;;;;;12.77;10.00;;;24.10;53.80;;;;;;5003820;28;20456;-81
2023/05/21 07:52:22;;;;;;;12.73;10.77;;;24.30;53.80;;;;;;5006317;28;20469;-81
2023/05/21 07:54:49;;;;;;;13.37;10.90;;;24.30;53.40;;;;;;5023258;28;20571;-81
2023/05/21 07:57:17;;;;;;;12.70;10.63;;;24.30;53.80;;;;;;5022090;28;20441;-82
2023/05/21 07:59:57;;;;;;;12.30;10.63;;;24.30;54.10;;;;;;5024160;28;20456;-82
2023/05/21 08:02:24;;;;;;;17.40;12.67;;;24.40;53.70;;;;;;5033330;28;20473;-81
2023/05/21 08:04:53;;;;;;;14.63;10.60;;;24.30;54.00;;;;;;5024831;28;20452;-82
2023/05/21 08:07:22;;;;;;;15.50;11.07;;;24.30;54.00;;;;;;5010803;28;20458;-83
2023/05/21 08:09:50;;;;;;;14.80;11.37;;;24.30;53.90;;;;;;5017035;28;20437;-81
2023/05/21 08:12:18;;;;;;;14.97;10.97;;;24.40;54.40;;;;;;5019385;28;20481;-82
2023/05/21 08:14:45;;;;;;;16.90;11.67;;;24.50;54.00;;;;;;5002068;28;20872;-82
2023/05/21 08:17:14;;;;;;;13.13;10.60;;;24.60;53.60;;;;;;5022332;28;20548;-82
2023/05/21 08:19:41;;;;;;;16.20;11.33;;;24.40;53.30;;;;;;5019991;28;20461;-83
2023/05/21 08:22:08;;;;;;;13.70;10.13;;;24.30;53.10;;;;;;5021447;28;20469;-82
2023/05/21 08:24:40;;;;;;;12.83;11.30;;;24.40;53.90;;;;;;5021133;28;20469;-83
2023/05/21 08:27:07;;;;;;;15.10;10.80;;;24.40;53.80;;;;;;5041876;28;20472;-83
2023/05/21 08:29:34;;;;;;;11.53;10.33;;;24.00;53.90;;;;;;5022866;28;21069;-83
2023/05/21 08:32:03;;;;;;;12.50;11.17;;;24.20;54.20;;;;;;5009140;28;20476;-82
2023/05/21 08:34:30;;;;;;;17.83;11.43;;;24.50;54.70;;;;;;5036822;28;20457;-83
2023/05/21 08:37:10;;;;;;;14.30;11.13;;;24.60;52.90;;;;;;5015602;28;21004;-80
2023/05/21 08:40:01;;;;;;;13.80;11.90;;;24.50;52.70;;;;;;5014951;28;20452;-85
2023/05/21 08:42:42;;;;;;;14.37;10.37;;;24.70;53.50;;;;;;5006523;28;20508;-83
2023/05/21 08:45:13;;;;;;;14.23;10.63;;;24.80;51.90;;;;;;5003589;28;20484;-83
2023/05/21 08:47:43;;;;;;;12.93;10.40;;;25.00;52.40;;;;;;5024538;28;20954;-83
2023/05/21 08:50:13;;;;;;;13.87;10.40;;;25.40;51.60;;;;;;5013526;28;20453;-83
2023/05/21 08:52:40;;;;;;;10.50;8.67;;;25.40;51.20;;;;;;5012815;28;20552;-85
2023/05/21 08:55:10;;;;;;;12.90;10.07;;;25.30;49.50;;;;;;5014830;28;20467;-84
2023/05/21 08:57:42;;;;;;;11.10;9.63;;;25.40;49.40;;;;;;5036617;28;20503;-84
2023/05/21 09:00:11;;;;;;;11.50;9.50;;;25.40;48.90;;;;;;5008607;28;20522;-82
2023/05/21 09:02:42;;;;;;;10.90;9.80;;;25.50;48.80;;;;;;5028826;28;20515;-84
2023/05/21 09:05:10;;;;;;;13.60;10.53;;;25.70;49.10;;;;;;5040866;28;20488;-82
2023/05/21 09:07:43;;;;;;;12.13;9.80;;;25.80;48.20;;;;;;5031088;28;20453;-84
2023/05/21 09:10:49;;;;;;;16.97;10.00;;;25.70;48.60;;;;;;5021051;28;20599;-85
2023/05/21 09:13:17;;;;;;;10.60;9.50;;;25.90;48.60;;;;;;5040333;28;20484;-85
2023/05/21 09:15:45;;;;;;;10.57;9.27;;;25.90;48.10;;;;;;5054774;28;20909;-86
2023/05/21 09:18:13;;;;;;;10.10;9.10;;;25.70;47.40;;;;;;5056573;28;21404;-84
2023/05/21 09:20:55;;;;;;;9.63;8.63;;;25.70;47.70;;;;;;5024134;28;20457;-83
2023/05/21 09:23:22;;;;;;;9.73;8.73;;;26.00;46.60;;;;;;5013792;28;20993;-88
2023/05/21 09:25:52;;;;;;;10.40;9.17;;;26.20;46.60;;;;;;5039626;28;20460;-83
2023/05/21 09:28:25;;;;;;;12.97;9.77;;;26.50;46.50;;;;;;5026923;28;21002;-82
2023/05/21 09:30:53;;;;;;;10.40;9.33;;;26.60;46.50;;;;;;5034261;28;20531;-83
2023/05/21 09:33:29;;;;;;;10.73;9.63;;;26.50;45.20;;;;;;5007218;28;20514;-84
2023/05/21 09:35:56;;;;;;;11.90;9.77;;;26.40;46.20;;;;;;5020876;28;21240;-83
2023/05/21 09:38:25;;;;;;;10.40;8.93;;;26.60;46.10;;;;;;5024088;28;20460;-83
2023/05/21 09:40:55;;;;;;;12.10;9.23;;;26.70;44.90;;;;;;5008826;28;20457;-83
2023/05/21 09:43:23;;;;;;;13.20;9.53;;;26.80;45.40;;;;;;5029897;28;20472;-85
2023/05/21 09:45:52;;;;;;;9.40;8.47;;;26.80;45.80;;;;;;5034572;28;20954;-83
2023/05/21 09:48:32;;;;;;;12.03;8.23;;;27.00;44.70;;;;;;5019513;28;21918;-83
2023/05/21 09:51:12;;;;;;;10.60;9.30;;;27.20;44.30;;;;;;5019224;28;20446;-83
2023/05/21 09:54:00;;;;;;;10.37;9.27;;;27.40;44.10;;;;;;5017251;28;20463;-84
2023/05/21 09:56:30;;;;;;;10.43;8.67;;;27.70;44.90;;;;;;5018799;28;20465;-84
2023/05/21 09:58:59;;;;;;;9.00;8.10;;;27.70;42.60;;;;;;5001262;28;20515;-82
2023/05/21 10:01:26;;;;;;;12.63;10.73;;;27.70;42.90;;;;;;5002576;28;20476;-84
2023/05/21 10:03:56;;;;;;;11.20;9.50;;;28.00;43.60;;;;;;5034975;28;20456;-83
2023/05/21 10:06:26;;;;;;;9.83;8.67;;;28.20;43.10;;;;;;5001252;28;20453;-85
2023/05/21 10:08:55;;;;;;;11.70;9.00;;;28.40;43.30;;;;;;5049715;28;20449;-84
2023/05/21 10:11:25;;;;;;;9.70;8.70;;;28.70;42.90;;;;;;5018564;28;20483;-84
2023/05/21 10:13:57;;;;;;;12.50;8.90;;;28.80;42.40;;;;;;5022756;28;20870;-83
2023/05/21 10:16:24;;;;;;;11.03;8.93;;;28.90;41.10;;;;;;5023220;28;20477;-82
2023/05/21 10:18:53;;;;;;;9.83;8.83;;;28.90;41.50;;;;;;5005869;28;20442;-83
2023/05/21 10:21:22;;;;;;;10.63;9.10;;;29.00;40.90;;;;;;5034385;28;20449;-84
2023/05/21 10:23:50;;;;;;;11.50;8.63;;;29.10;40.20;;;;;;5024053;28;20495;-84
2023/05/21 10:26:20;;;;;;;11.80;9.37;;;29.20;41.00;;;;;;4999257;28;20445;-83
2023/05/21 10:28:48;;;;;;;11.23;9.20;;;29.10;40.70;;;;;;5000732;28;20449;-83
2023/05/21 10:31:16;;;;;;;9.60;8.40;;;29.30;40.40;;;;;;5033574;28;20453;-84
2023/05/21 10:33:44;;;;;;;10.80;7.90;;;29.20;40.90;;;;;;5033929;28;20441;-83
2023/05/21 10:36:11;;;;;;;10.93;8.97;;;29.40;41.70;;;;;;4996636;28;20468;-83
2023/05/21 10:38:39;;;;;;;10.57;9.20;;;29.30;40.40;;;;;;5014858;28;20457;-83
2023/05/21 10:41:09;;;;;;;9.50;8.57;;;29.40;39.90;;;;;;5016665;28;20450;-84
2023/05/21 10:43:48;;;;;;;9.50;8.43;;;29.40;38.90;;;;;;5022798;28;20481;-83
2023/05/21 10:46:36;;;;;;;9.13;7.87;;;29.50;39.60;;;;;;5031917;28;20438;-84
2023/05/21 10:49:36;;;;;;;10.87;8.60;;;29.90;40.00;;;;;;5034379;28;21273;-86
2023/05/21 10:52:12;;;;;;;9.93;8.90;;;30.00;38.20;;;;;;5029815;28;21004;-88
2023/05/21 10:54:57;;;;;;;10.17;8.23;;;29.90;38.40;;;;;;5042767;28;20453;-83
2023/05/21 10:57:52;;;;;;;10.13;9.20;;;30.00;38.70;;;;;;5020482;28;20461;-86
2023/05/21 11:00:20;;;;;;;9.60;8.70;;;30.20;37.80;;;;;;5034281;28;20467;-83
2023/05/21 11:02:50;;;;;;;9.33;8.43;;;30.40;37.10;;;;;;5033654;28;20472;-83
2023/05/21 11:05:34;;;;;;;11.30;9.00;;;30.60;36.90;;;;;;5024282;28;20568;-84
2023/05/21 11:08:01;;;;;;;10.60;8.17;;;30.40;37.40;;;;;;5038374;28;20923;-82
2023/05/21 11:10:37;;;;;;;9.97;8.97;;;30.60;37.40;;;;;;5023707;28;20539;-85
2023/05/21 11:13:15;;;;;;;9.47;8.63;;;30.50;37.70;;;;;;5018236;28;20474;-85
2023/05/21 11:16:06;;;;;;;11.40;8.50;;;30.50;37.40;;;;;;5008750;28;20524;-84
2023/05/21 11:19:03;;;;;;;9.07;8.17;;;30.50;37.00;;;;;;5012286;28;20532;-83
2023/05/21 11:21:31;;;;;;;8.10;7.30;;;30.60;37.70;;;;;;5035623;28;20461;-84
2023/05/21 11:24:07;;;;;;;8.93;7.93;;;30.60;34.10;;;;;;5003929;28;20548;-82
2023/05/21 11:27:03;;;;;;;9.87;8.87;;;30.70;35.60;;;;;;5038617;28;20441;-82
2023/05/21 11:29:42;;;;;;;9.30;8.40;;;30.50;34.70;;;;;;5013944;28;20440;-82
2023/05/21 11:32:11;;;;;;;9.00;7.37;;;30.90;35.00;;;;;;5022532;28;20555;-86
2023/05/21 11:34:45;;;;;;;9.53;8.50;;;30.70;34.80;;;;;;5022771;28;20450;-85
2023/05/21 11:37:29;;;;;;;9.80;8.27;;;30.50;35.00;;;;;;5009971;28;20473;-84
2023/05/21 11:39:58;;;;;;;9.23;7.70;;;30.50;35.60;;;;;;5010548;28;20838;-84
2023/05/21 11:42:30;;;;;;;10.57;7.70;;;30.70;35.60;;;;;;5036687;28;20469;-83
2023/05/21 11:44:58;;;;;;;10.53;9.00;;;30.60;35.00;;;;;;5025887;28;20829;-83
2023/05/21 11:47:26;;;;;;;9.60;8.60;;;30.80;36.40;;;;;;5029920;28;20514;-84
2023/05/21 11:49:54;;;;;;;10.23;8.47;;;30.80;35.10;;;;;;5001809;28;20480;-85
2023/05/21 11:52:21;;;;;;;9.23;7.80;;;30.80;36.60;;;;;;5042009;28;20523;-84
2023/05/21 11:54:52;;;;;;;9.23;8.33;;;31.00;35.00;;;;;;5018658;28;21068;-84
2023/05/21 11:57:19;;;;;;;12.33;7.87;;;31.30;34.40;;;;;;5015104;28;20467;-82
2023/05/21 11:59:47;;;;;;;11.03;8.20;;;31.20;33.70;;;;;;5012466;28;20453;-82
2023/05/21 12:02:15;;;;;;;10.83;8.07;;;31.30;34.00;;;;;;5021827;28;20480;-84
2023/05/21 12:04:43;;;;;;;9.50;8.27;;;31.50;33.70;;;;;;5021253;28;20459;-84
2023/05/21 12:07:13;;;;;;;8.60;7.90;;;31.60;34.00;;;;;;5029960;28;20535;-84
2023/05/21 12:09:41;;;;;;;11.10;8.70;;;31.70;34.60;;;;;;5054598;28;20522;-86
2023/05/21 12:12:09;;;;;;;9.50;8.53;;;31.90;33.40;;;;;;5038494;28;20554;-84
2023/05/21 12:14:36;;;;;;;9.57;8.50;;;31.90;33.20;;;;;;5023748;28;20827;-84
2023/05/21 12:17:05;;;;;;;9.87;8.50;;;31.90;34.50;;;;;;5016268;28;20464;-86
2023/05/21 12:19:33;;;;;;;9.73;8.80;;;32.10;33.40;;;;;;5048168;28;20888;-84
2023/05/21 12:22:02;;;;;;;8.60;7.67;;;32.00;33.60;;;;;;5023248;28;20482;-84
2023/05/21 12:24:31;;;;;;;9.17;8.33;;;32.20;33.30;;;;;;5022606;28;20453;-84
2023/05/21 12:26:59;;;;;;;8.97;8.00;;;32.40;33.40;;;;;;5025390;28;20492;-85
2023/05/21 12:29:27;;;;;;;9.83;8.37;;;32.40;33.10;;;;;;5026559;28;20563;-83
2023/05/21 12:31:54;;;;;;;9.73;7.97;;;32.50;33.50;;;;;;5042474;28;20500;-85
2023/05/21 12:34:42;;;;;;;9.40;8.50;;;32.70;31.60;;;;;;5039471;28;20840;-84
2023/05/21 12:37:09;;;;;;;10.33;8.03;;;32.60;32.20;;;;;;5013792;28;20501;-84
2023/05/21 12:39:42;;;;;;;8.23;7.17;;;32.70;32.90;;;;;;5041605;28;20712;-84
2023/05/21 12:42:09;;;;;;;9.27;7.70;;;32.30;31.50;;;;;;5022403;28;20978;-83
2023/05/21 12:44:39;;;;;;;8.77;7.87;;;32.30;31.90;;;;;;5027053;28;20804;-85